Time;durP1;ratioP1;P1;durP2;ratioP2;P2;SDS_P1;SDS_P2;PMS_P1;PMS_P2;Temp;Humidity;BMP_temperature;BMP_pressure;BME280_temperature;BME280_humidity;BME280_pressure;Samples;Min_cycle;Max_cycle;Signal;HPM_P1;HPM_P2
2023/06/14 00:00:42;;;;;;;6.70;4.57;;;;;;;22.02;31.99;100072.06;4142703;28;20038;-72
2023/06/14 00:02:46;;;;;;;14.13;4.35;;;;;;;21.94;32.08;100069.69;4133729;28;20035;-71
2023/06/14 00:04:52;;;;;;;;;;;;;;;21.90;32.15;100060.19;4112981;28;22122;-72
2023/06/14 00:06:56;;;;;;;7.30;4.20;;;;;;;21.86;32.20;100074.44;4130105;28;20399;-72
2023/06/14 00:08:59;;;;;;;8.30;5.00;;;;;;;22.01;32.13;100058.88;4142692;28;20040;-71
2023/06/14 00:11:02;;;;;;;6.60;4.50;;;;;;;21.85;32.51;100075.34;4141169;28;20046;-72
2023/06/14 00:13:07;;;;;;;5.13;3.53;;;;;;;21.87;32.36;100062.06;4145720;28;20101;-72
2023/06/14 00:15:14;;;;;;;9.65;4.20;;;;;;;21.80;32.56;100061.47;4141186;28;20077;-72
2023/06/14 00:17:17;;;;;;;7.10;4.30;;;;;;;21.81;32.70;100065.81;4144787;28;20041;-73
2023/06/14 00:19:21;;;;;;;5.57;3.83;;;;;;;21.78;33.24;100065.94;4139200;28;20042;-73
2023/06/14 00:21:24;;;;;;;5.35;3.53;;;;;;;21.84;33.08;100070.13;4139922;28;20052;-72
2023/06/14 00:23:27;;;;;;;8.05;4.40;;;;;;;21.79;33.63;100065.88;4144845;28;20041;-72
2023/06/14 00:25:30;;;;;;;7.32;3.90;;;;;;;21.74;33.91;100072.25;4140749;28;20046;-73
2023/06/14 00:27:33;;;;;;;8.80;3.85;;;;;;;21.71;34.19;100069.72;4129825;28;20050;-73
2023/06/14 00:29:36;;;;;;;5.57;3.33;;;;;;;21.68;34.22;100069.84;4124721;28;20097;-73
2023/06/14 00:31:39;;;;;;;6.95;3.63;;;;;;;21.61;34.78;100077.13;4127847;28;20486;-72
2023/06/14 00:33:42;;;;;;;6.18;3.97;;;;;;;21.54;34.91;100070.38;4129857;28;20101;-73
2023/06/14 00:35:48;;;;;;;;;;;;;;;21.38;35.18;100078.00;4143588;28;20034;-73
2023/06/14 00:37:51;;;;;;;5.80;4.13;;;;;;;21.36;35.28;100072.75;4144250;28;20534;-73
2023/06/14 00:39:53;;;;;;;7.45;3.55;;;;;;;21.30;35.14;100078.25;4110952;28;20138;-72
2023/06/14 00:41:57;;;;;;;9.10;3.85;;;;;;;21.28;35.29;100078.31;4127499;28;20043;-72
2023/06/14 00:44:01;;;;;;;7.53;4.30;;;;;;;21.26;35.19;100074.88;4145123;28;20034;-73
2023/06/14 00:46:04;;;;;;;7.78;4.00;;;;;;;21.31;34.85;100069.41;4107584;28;20509;-72
2023/06/14 00:48:09;;;;;;;5.75;3.70;;;;;;;21.35;35.20;100072.78;4129585;28;20070;-73
2023/06/14 00:50:12;;;;;;;7.32;3.85;;;;;;;21.40;34.87;100071.69;4126489;28;20056;-73
2023/06/14 00:52:17;;;;;;;9.85;5.00;;;;;;;21.48;34.78;100074.09;4130378;28;20035;-74
2023/06/14 00:54:20;;;;;;;7.80;4.68;;;;;;;21.53;34.76;100077.44;4115253;28;20053;-72
2023/06/14 00:56:23;;;;;;;6.68;4.35;;;;;;;21.52;35.06;100080.16;4125618;28;20046;-73
2023/06/14 00:58:27;;;;;;;10.23;4.78;;;;;;;21.48;35.14;100079.38;4132932;28;20446;-72
2023/06/14 01:00:29;;;;;;;8.23;4.07;;;;;;;21.50;35.00;100072.22;4126865;28;20048;-72
2023/06/14 01:02:32;;;;;;;9.88;4.93;;;;;;;21.43;35.15;100076.88;4144787;28;20301;-72
2023/06/14 01:04:36;;;;;;;9.57;4.72;;;;;;;21.36;35.64;100079.81;4111043;28;20074;-72
2023/06/14 01:06:54;;;;;;;8.15;5.00;;;;;;;21.35;35.52;100086.00;4122696;28;20500;-72
2023/06/14 01:09:10;;;;;;;9.65;5.13;;;;;;;21.28;35.94;100082.75;4117819;28;20042;-72
2023/06/14 01:11:22;;;;;;;8.32;5.07;;;;;;;21.27;35.78;100087.19;4139524;28;20075;-72
2023/06/14 01:13:29;;;;;;;9.15;4.40;;;;;;;21.26;35.60;100085.44;4143948;28;20041;-73
2023/06/14 01:15:33;;;;;;;7.28;5.18;;;;;;;21.30;35.30;100093.25;4121678;28;20038;-72
2023/06/14 01:17:41;;;;;;;7.28;4.63;;;;;;;21.28;35.43;100088.03;4116857;28;20054;-71
2023/06/14 01:19:44;;;;;;;9.15;4.88;;;;;;;21.29;35.43;100092.41;4143416;28;20048;-73
2023/06/14 01:21:50;;;;;;;7.82;5.68;;;;;;;21.27;35.50;100092.47;4143606;28;20555;-73
2023/06/14 01:23:55;;;;;;;11.95;5.60;;;;;;;21.27;35.39;100084.53;4125986;28;20053;-72
2023/06/14 01:26:02;;;;;;;10.15;5.45;;;;;;;21.27;35.44;100092.47;4129500;28;20037;-72
2023/06/14 01:28:10;;;;;;;10.05;5.68;;;;;;;21.21;35.41;100092.66;4136684;28;20503;-72
2023/06/14 01:30:14;;;;;;;12.68;5.88;;;;;;;21.14;35.86;100091.16;4127876;28;20077;-72
2023/06/14 01:32:18;;;;;;;7.82;5.25;;;;;;;21.14;35.52;100098.22;4108544;28;20424;-73
2023/06/14 01:34:21;;;;;;;;;;;;;;;20.97;36.04;100094.41;4143447;28;20046;-72
2023/06/14 01:36:28;;;;;;;7.57;4.78;;;;;;;20.99;35.95;100097.00;4111407;28;19926;-72
2023/06/14 01:38:33;;;;;;;6.95;4.85;;;;;;;21.03;35.93;100095.97;4142307;28;20044;-73
2023/06/14 01:40:40;;;;;;;12.07;5.18;;;;;;;21.06;35.72;100101.16;4139995;28;20070;-72
2023/06/14 01:42:45;;;;;;;11.10;4.57;;;;;;;21.11;35.79;100101.84;4125357;28;20097;-71
2023/06/14 01:44:49;;;;;;;7.72;4.63;;;;;;;21.11;35.72;100104.47;4123368;28;20146;-71
2023/06/14 01:46:52;;;;;;;10.23;4.45;;;;;;;21.08;35.94;100102.84;4141805;28;20068;-71
2023/06/14 01:48:58;;;;;;;8.73;5.35;;;;;;;20.99;36.14;100097.84;4144423;28;20053;-72
2023/06/14 01:51:02;;;;;;;8.18;4.88;;;;;;;21.00;36.23;100104.03;4143503;28;20029;-71
2023/06/14 01:53:08;;;;;;;9.73;5.10;;;;;;;21.07;36.04;100100.22;4139976;28;20049;-71
2023/06/14 01:55:12;;;;;;;7.40;4.60;;;;;;;20.99;36.35;100104.94;4128152;28;20749;-71
2023/06/14 01:57:17;;;;;;;7.88;5.55;;;;;;;21.01;36.19;100105.72;4126841;28;20129;-71
2023/06/14 01:59:19;;;;;;;;;;;;;;;20.92;36.63;100102.50;4127407;28;20069;-71
2023/06/14 02:01:22;;;;;;;10.30;6.13;;;;;;;20.97;36.49;100110.25;4110796;28;19965;-71
2023/06/14 02:03:25;;;;;;;8.52;5.22;;;;;;;20.97;36.63;100098.81;4123964;28;20043;-71
2023/06/14 02:05:30;;;;;;;9.77;5.22;;;;;;;20.93;36.62;100108.63;4142391;28;20631;-71
2023/06/14 02:07:33;;;;;;;11.13;5.57;;;;;;;20.88;36.69;100110.56;4144442;28;20125;-71
2023/06/14 02:09:36;;;;;;;10.07;4.97;;;;;;;20.88;36.95;100111.44;4127631;28;20038;-71
2023/06/14 02:11:39;;;;;;;10.70;5.45;;;;;;;20.88;36.87;100105.28;4137896;28;20065;-71
2023/06/14 02:13:43;;;;;;;9.50;4.75;;;;;;;20.83;36.94;100118.66;4121319;28;20464;-72
2023/06/14 02:15:46;;;;;;;10.88;4.72;;;;;;;20.79;37.19;100110.88;4109862;28;20043;-71
2023/06/14 02:17:49;;;;;;;9.40;4.72;;;;;;;20.75;37.33;100115.41;4140438;28;20034;-71
2023/06/14 02:19:52;;;;;;;8.95;4.95;;;;;;;20.68;37.52;100108.63;4127664;28;20092;-71
2023/06/14 02:21:55;;;;;;;8.73;5.22;;;;;;;20.71;37.29;100108.50;4128111;28;20034;-71
2023/06/14 02:23:58;;;;;;;13.13;5.65;;;;;;;20.68;37.69;100108.63;4124874;28;20495;-71
2023/06/14 02:26:03;;;;;;;10.93;6.15;;;;;;;20.61;37.75;100107.91;4125257;28;20276;-71
2023/06/14 02:28:07;;;;;;;9.35;5.53;;;;;;;20.64;37.85;100113.09;4126363;28;20081;-71
2023/06/14 02:30:12;;;;;;;10.98;5.25;;;;;;;20.62;38.26;100112.28;4141595;28;20041;-70
2023/06/14 02:32:16;;;;;;;8.98;5.07;;;;;;;20.57;38.09;100108.91;4133727;28;20496;-71
2023/06/14 02:34:21;;;;;;;11.10;6.40;;;;;;;20.55;38.51;100113.41;4143232;28;20038;-71
2023/06/14 02:36:24;;;;;;;11.20;5.50;;;;;;;20.48;38.56;100112.72;4116818;28;20038;-70
2023/06/14 02:38:28;;;;;;;9.18;5.85;;;;;;;20.43;38.94;100114.66;4124320;28;20109;-71
2023/06/14 02:40:30;;;;;;;11.30;5.93;;;;;;;20.44;38.92;100113.72;4127655;28;20049;-71
2023/06/14 02:42:33;;;;;;;10.63;5.90;;;;;;;20.39;38.82;100118.31;4127989;28;20045;-71
2023/06/14 02:44:36;;;;;;;7.03;4.57;;;;;;;20.21;39.38;100115.34;4122865;28;20043;-71
2023/06/14 02:46:41;;;;;;;8.50;4.72;;;;;;;20.16;39.83;100116.38;4134492;28;20053;-70
2023/06/14 02:48:43;;;;;;;8.65;5.00;;;;;;;20.18;39.78;100120.72;4123869;28;20401;-70
2023/06/14 02:50:46;;;;;;;16.65;6.22;;;;;;;20.22;39.67;100110.91;4128406;28;20046;-71
2023/06/14 02:52:49;;;;;;;13.70;5.20;;;;;;;20.18;39.93;100112.81;4140618;28;20500;-71
2023/06/14 02:54:53;;;;;;;12.45;5.88;;;;;;;20.11;39.78;100115.69;4140068;28;20096;-72
2023/06/14 02:56:56;;;;;;;8.27;4.90;;;;;;;20.12;40.06;100120.03;4119268;28;20203;-71
2023/06/14 02:59:00;;;;;;;18.83;6.00;;;;;;;20.07;40.53;100111.41;4127171;28;20038;-70
2023/06/14 03:01:03;;;;;;;8.77;5.63;;;;;;;20.05;40.28;100116.72;4127868;28;20031;-71
2023/06/14 03:03:13;;;;;;;8.20;5.60;;;;;;;20.09;40.30;100115.69;4122021;28;20047;-70
2023/06/14 03:05:21;;;;;;;10.55;6.45;;;;;;;19.95;40.80;100117.94;4121334;28;20044;-70
2023/06/14 03:07:25;;;;;;;7.50;5.82;;;;;;;19.90;40.55;100125.94;4124354;28;20097;-71
2023/06/14 03:09:29;;;;;;;9.38;5.72;;;;;;;19.85;41.11;100128.72;4123067;28;20065;-71
2023/06/14 03:11:33;;;;;;;10.68;6.03;;;;;;;19.80;40.96;100119.22;4122202;28;20066;-72
2023/06/14 03:13:37;;;;;;;9.90;5.45;;;;;;;19.71;41.12;100123.84;4124685;28;20050;-71
2023/06/14 03:15:41;;;;;;;12.57;5.60;;;;;;;19.71;41.39;100126.47;4125534;28;20044;-72
2023/06/14 03:17:45;;;;;;;10.10;5.55;;;;;;;19.64;41.50;100124.03;4109103;28;20146;-72
2023/06/14 03:19:51;;;;;;;12.13;6.28;;;;;;;19.66;41.70;100128.38;4128611;28;20448;-71
2023/06/14 03:21:56;;;;;;;8.60;5.20;;;;;;;19.52;41.91;100134.06;4125193;28;20039;-72
2023/06/14 03:24:01;;;;;;;14.95;6.45;;;;;;;19.60;42.14;100133.81;4121609;28;20105;-72
2023/06/14 03:26:05;;;;;;;9.05;6.05;;;;;;;19.55;42.12;100133.06;4127199;28;20162;-71
2023/06/14 03:28:09;;;;;;;11.55;5.45;;;;;;;19.48;41.87;100140.31;4126515;28;20405;-70
2023/06/14 03:30:12;;;;;;;11.65;5.72;;;;;;;19.45;41.97;100144.78;4128117;28;20034;-71
2023/06/14 03:32:18;;;;;;;8.50;5.72;;;;;;;19.42;41.54;100137.84;4107062;28;20046;-71
2023/06/14 03:34:21;;;;;;;9.82;5.03;;;;;;;19.42;41.60;100143.13;4127484;28;20046;-71
2023/06/14 03:36:25;;;;;;;13.55;6.40;;;;;;;19.34;42.03;100142.47;4124427;28;20065;-70
2023/06/14 03:38:30;;;;;;;9.55;5.35;;;;;;;19.23;42.38;100153.31;4108865;28;20560;-70
2023/06/14 03:40:34;;;;;;;8.43;6.28;;;;;;;19.18;42.44;100148.13;4138021;28;20088;-71
2023/06/14 03:42:39;;;;;;;10.85;5.80;;;;;;;19.22;42.58;100158.63;4126534;28;20472;-71
2023/06/14 03:44:42;;;;;;;8.73;5.25;;;;;;;19.19;42.43;100160.41;4127348;28;20054;-71
2023/06/14 03:46:46;;;;;;;7.47;5.38;;;;;;;19.22;42.53;100150.72;4124658;28;20035;-71
2023/06/14 03:48:49;;;;;;;10.13;5.88;;;;;;;19.17;42.10;100156.06;4127501;28;20038;-71
2023/06/14 03:50:54;;;;;;;12.25;6.30;;;;;;;19.04;42.63;100165.22;4129529;28;20119;-70
2023/06/14 03:53:03;;;;;;;7.38;5.22;;;;;;;19.05;42.53;100152.00;4130057;28;20052;-70
2023/06/14 03:55:07;;;;;;;8.10;5.82;;;;;;;19.07;42.36;100159.84;4121433;28;20478;-70
2023/06/14 03:57:14;;;;;;;11.63;6.65;;;;;;;18.93;42.97;100160.22;4109780;28;20047;-71
2023/06/14 03:59:18;;;;;;;12.15;6.18;;;;;;;18.85;43.19;100160.34;4127573;28;20073;-70
2023/06/14 04:01:25;;;;;;;9.68;6.35;;;;;;;18.78;42.98;100164.06;4145602;28;20064;-70
2023/06/14 04:03:29;;;;;;;10.18;5.68;;;;;;;18.77;43.07;100172.88;4109149;28;20055;-69
2023/06/14 04:05:33;;;;;;;9.80;6.20;;;;;;;18.74;43.02;100175.59;4143729;28;20042;-69
2023/06/14 04:07:39;;;;;;;10.45;6.15;;;;;;;18.71;42.87;100178.28;4130612;28;20129;-71
2023/06/14 04:09:46;;;;;;;15.70;6.90;;;;;;;18.65;43.36;100180.16;4127389;28;20125;-70
2023/06/14 04:11:48;;;;;;;;;;;;;;;18.63;43.16;100181.97;4139313;28;20038;-69
2023/06/14 04:13:53;;;;;;;9.85;6.10;;;;;;;18.62;43.23;100182.88;4129264;28;20000;-70
2023/06/14 04:15:56;;;;;;;12.52;6.00;;;;;;;18.69;43.44;100183.59;4146842;28;20488;-70
2023/06/14 04:18:05;;;;;;;17.83;6.80;;;;;;;18.72;43.03;100191.41;4127568;28;20113;-70
2023/06/14 04:20:09;;;;;;;9.32;5.28;;;;;;;18.70;43.38;100194.97;4126020;28;20141;-72
2023/06/14 04:22:12;;;;;;;9.70;5.65;;;;;;;18.70;43.39;100193.22;4130021;28;20110;-71
2023/06/14 04:24:15;;;;;;;10.57;5.72;;;;;;;18.71;43.62;100197.59;4123126;28;20077;-71
2023/06/14 04:26:23;;;;;;;15.50;5.78;;;;;;;18.78;43.57;100191.28;4142976;28;20096;-70
2023/06/14 04:28:29;;;;;;;11.38;6.20;;;;;;;18.86;43.12;100203.38;4124871;28;20594;-71
2023/06/14 04:30:35;;;;;;;10.82;6.50;;;;;;;18.87;43.02;100199.91;4125774;28;20109;-71
2023/06/14 04:32:39;;;;;;;11.68;6.45;;;;;;;18.90;43.16;100207.72;4141300;28;20046;-71
2023/06/14 04:34:44;;;;;;;13.73;6.15;;;;;;;18.92;43.40;100203.25;4125717;28;20043;-70
2023/06/14 04:36:49;;;;;;;16.17;6.50;;;;;;;18.97;43.03;100206.66;4146886;28;20096;-71
2023/06/14 04:38:54;;;;;;;12.85;5.97;;;;;;;18.95;42.88;100206.72;4144837;28;20467;-71
2023/06/14 04:41:02;;;;;;;11.73;5.75;;;;;;;18.98;43.38;100213.66;4130565;28;20034;-72
2023/06/14 04:43:06;;;;;;;10.77;5.95;;;;;;;19.07;43.91;100212.56;4144790;28;20034;-59
2023/06/14 04:45:10;;;;;;;14.45;6.18;;;;;;;19.21;43.52;100210.44;4140905;28;20066;-62
2023/06/14 04:47:16;;;;;;;13.85;6.57;;;;;;;19.36;42.39;100210.06;4144331;28;20093;-62
2023/06/14 04:49:19;;;;;;;11.48;6.07;;;;;;;19.34;42.75;100213.63;4126848;28;20061;-62
2023/06/14 04:51:29;;;;;;;12.75;6.25;;;;;;;19.27;42.30;100212.06;4128128;28;20069;-62
2023/06/14 04:53:32;;;;;;;14.98;6.85;;;;;;;19.25;42.72;100220.00;4129008;28;20053;-62
2023/06/14 04:55:35;;;;;;;13.50;6.13;;;;;;;19.32;42.72;100215.44;4124531;28;20129;-63
2023/06/14 04:57:41;;;;;;;11.18;6.20;;;;;;;19.38;42.22;100217.03;4113669;28;20066;-62
2023/06/14 04:59:46;;;;;;;11.50;5.85;;;;;;;19.42;43.01;100231.88;4121345;28;20133;-62
2023/06/14 05:02:11;;;;;;;7.90;5.60;;;;;;;19.57;42.38;100222.72;4144849;28;20430;-63
2023/06/14 05:04:15;;;;;;;10.38;5.93;;;;;;;19.62;41.92;100234.00;4104209;28;20059;-60
2023/06/14 05:06:18;;;;;;;11.55;6.45;;;;;;;19.63;42.13;100227.81;4097649;28;20035;-59
2023/06/14 05:08:23;;;;;;;20.88;7.25;;;;;;;19.66;42.06;100236.50;4104961;28;20055;-59
2023/06/14 05:10:26;;;;;;;16.67;6.88;;;;;;;19.69;41.97;100238.19;4114830;28;20046;-59
2023/06/14 05:12:29;;;;;;;21.45;7.05;;;;;;;19.74;41.93;100244.19;4096365;28;20047;-60
2023/06/14 05:14:33;;;;;;;13.93;6.32;;;;;;;19.68;42.15;100241.72;4094722;28;20043;-63
2023/06/14 05:16:38;;;;;;;11.80;6.20;;;;;;;19.64;42.19;100233.06;4097348;28;20110;-63
2023/06/14 05:18:41;;;;;;;13.18;6.10;;;;;;;19.71;41.86;100236.38;4112818;28;20446;-63
2023/06/14 05:20:44;;;;;;;10.57;6.60;;;;;;;19.84;41.89;100242.22;4114756;28;20650;-64
2023/06/14 05:22:48;;;;;;;21.35;6.32;;;;;;;19.82;41.54;100244.03;4113994;28;20041;-64
2023/06/14 05:24:51;;;;;;;14.68;6.53;;;;;;;19.92;41.48;100242.88;4109821;28;20138;-64
2023/06/14 05:26:54;;;;;;;17.42;7.10;;;;;;;19.89;41.53;100240.31;4112826;28;20588;-64
2023/06/14 05:28:57;;;;;;;17.17;6.55;;;;;;;19.85;41.59;100238.69;4113130;28;20034;-64
2023/06/14 05:31:00;;;;;;;13.30;7.05;;;;;;;19.97;41.26;100240.09;4097293;29;20039;-64
2023/06/14 05:33:04;;;;;;;22.52;7.80;;;;;;;19.98;41.24;100242.69;4111458;28;20038;-63
2023/06/14 05:35:08;;;;;;;10.63;6.05;;;;;;;19.91;41.20;100250.84;4113061;28;20114;-64
2023/06/14 05:37:11;;;;;;;11.80;6.17;;;;;;;20.09;41.01;100250.28;4097011;29;20039;-64
2023/06/14 05:39:14;;;;;;;9.50;6.05;;;;;;;20.09;40.66;100242.38;4114222;28;20302;-64
2023/06/14 05:41:17;;;;;;;17.10;6.60;;;;;;;20.11;40.93;100243.22;4081645;29;20095;-64
2023/06/14 05:43:20;;;;;;;10.70;5.95;;;;;;;20.13;40.99;100253.72;4107954;28;20090;-64
2023/06/14 05:45:23;;;;;;;15.05;6.68;;;;;;;20.15;40.76;100252.78;4113362;28;20105;-64
2023/06/14 05:47:27;;;;;;;12.40;5.43;;;;;;;20.17;40.53;100250.94;4111259;28;20046;-64
2023/06/14 05:49:31;;;;;;;10.88;5.95;;;;;;;20.30;40.49;100246.19;4114139;28;20042;-64
2023/06/14 05:51:34;;;;;;;12.82;6.05;;;;;;;20.39;40.18;100242.41;4112811;28;20131;-64
2023/06/14 05:53:37;;;;;;;9.75;6.15;;;;;;;20.43;40.24;100257.25;4093658;29;20128;-64
2023/06/14 05:55:40;;;;;;;8.98;5.15;;;;;;;20.43;40.14;100256.38;4096242;29;20035;-64
2023/06/14 05:57:43;;;;;;;11.88;6.78;;;;;;;20.61;39.51;100261.09;4111805;28;20039;-64
2023/06/14 05:59:46;;;;;;;9.77;7.07;;;;;;;20.63;39.37;100253.97;4096301;29;20549;-64
2023/06/14 06:01:49;;;;;;;12.68;5.90;;;;;;;20.61;39.97;100266.38;4112138;28;20035;-64
2023/06/14 06:03:52;;;;;;;9.02;4.50;;;;;;;20.56;39.41;100263.88;4110173;28;20042;-63
2023/06/14 06:05:56;;;;;;;12.25;5.20;;;;;;;20.66;39.55;100263.59;4113661;28;20417;-64
2023/06/14 06:08:00;;;;;;;8.80;4.88;;;;;;;20.78;39.17;100260.63;4112431;28;20069;-63
2023/06/14 06:10:03;;;;;;;8.80;5.40;;;;;;;20.75;38.80;100266.84;4113714;28;20141;-63
2023/06/14 06:12:08;;;;;;;9.10;4.70;;;;;;;20.74;39.83;100266.91;4114007;28;20047;-64
2023/06/14 06:14:10;;;;;;;10.18;5.50;;;;;;;21.02;38.58;100266.03;4111443;28;20081;-64
2023/06/14 06:16:13;;;;;;;19.25;5.47;;;;;;;21.01;39.01;100269.59;4113666;28;20407;-63
2023/06/14 06:18:16;;;;;;;11.98;4.90;;;;;;;21.04;39.03;100274.78;4113526;28;20044;-64
2023/06/14 06:20:19;;;;;;;12.35;5.38;;;;;;;21.10;39.10;100272.81;4096442;29;20437;-64
2023/06/14 06:22:24;;;;;;;10.02;5.40;;;;;;;21.20;38.72;100267.22;4114034;28;20077;-64
2023/06/14 06:24:27;;;;;;;9.23;4.65;;;;;;;21.14;39.60;100262.13;4109810;28;20089;-64
2023/06/14 06:26:30;;;;;;;9.43;5.13;;;;;;;21.34;38.38;100270.25;4113526;28;20489;-64
2023/06/14 06:28:33;;;;;;;8.10;4.88;;;;;;;21.42;37.93;100275.28;4113515;28;20138;-64
2023/06/14 06:30:36;;;;;;;18.70;6.13;;;;;;;21.43;38.01;100275.22;4094027;29;20565;-64
2023/06/14 06:32:39;;;;;;;7.90;4.63;;;;;;;21.47;37.96;100270.72;4096595;28;20548;-63
2023/06/14 06:34:42;;;;;;;10.95;4.85;;;;;;;21.44;37.83;100268.19;4109428;28;20035;-64
2023/06/14 06:36:45;;;;;;;11.52;4.63;;;;;;;21.67;37.16;100270.06;4113304;28;20479;-63
2023/06/14 06:38:49;;;;;;;8.98;4.60;;;;;;;21.78;37.50;100282.91;4111456;28;20030;-63
2023/06/14 06:40:54;;;;;;;;;;;;;;;21.96;36.42;100278.72;4113635;28;20393;-63
2023/06/14 06:42:57;;;;;;;10.57;4.70;;;;;;;21.85;36.33;100278.28;4113599;28;19930;-64
2023/06/14 06:45:02;;;;;;;10.63;4.68;;;;;;;21.81;36.53;100282.78;4110187;28;20078;-64
2023/06/14 06:47:06;;;;;;;9.75;4.80;;;;;;;21.81;36.62;100287.25;4112095;28;20039;-63
2023/06/14 06:49:09;;;;;;;8.32;4.57;;;;;;;21.84;36.86;100290.63;4109166;28;20031;-64
2023/06/14 06:51:12;;;;;;;8.05;4.68;;;;;;;21.88;36.68;100289.59;4093365;29;20059;-64
2023/06/14 06:53:15;;;;;;;6.35;3.65;;;;;;;22.02;36.69;100296.19;4112800;28;20049;-64
2023/06/14 06:55:30;;;;;;;8.73;4.43;;;;;;;22.05;37.64;100302.25;4109230;28;20465;-63
2023/06/14 06:57:32;;;;;;;11.90;4.70;;;;;;;22.22;36.28;100295.47;4113250;28;20041;-64
2023/06/14 06:59:35;;;;;;;14.23;4.65;;;;;;;22.27;35.83;100297.03;4092708;29;20047;-64
2023/06/14 07:01:38;;;;;;;10.05;4.40;;;;;;;22.25;35.66;100293.59;4113412;28;20786;-64
2023/06/14 07:03:41;;;;;;;7.80;4.90;;;;;;;22.37;35.39;100300.25;4111410;28;20489;-64
2023/06/14 07:05:44;;;;;;;8.20;4.85;;;;;;;22.36;35.33;100300.28;4095552;29;20036;-64
2023/06/14 07:07:47;;;;;;;13.95;4.72;;;;;;;22.26;35.94;100305.03;4113426;28;20549;-63
2023/06/14 07:09:51;;;;;;;10.02;4.68;;;;;;;22.41;35.32;100306.28;4087468;28;20067;-64
2023/06/14 07:11:55;;;;;;;9.63;4.05;;;;;;;22.30;35.18;100312.81;4110927;28;20402;-64
2023/06/14 07:13:58;;;;;;;7.45;4.18;;;;;;;22.22;35.91;100314.84;4112720;28;20042;-64
2023/06/14 07:16:02;;;;;;;7.38;4.63;;;;;;;22.30;35.90;100302.19;4097928;28;20046;-63
2023/06/14 07:18:06;;;;;;;6.72;4.38;;;;;;;22.45;36.21;100310.53;4099724;29;20043;-64
2023/06/14 07:20:11;;;;;;;8.00;4.75;;;;;;;22.62;35.07;100300.16;4115608;28;20050;-64
2023/06/14 07:22:14;;;;;;;7.97;4.78;;;;;;;22.62;35.23;100315.22;4098987;28;20066;-63
2023/06/14 07:24:17;;;;;;;8.80;4.30;;;;;;;22.58;35.38;100311.78;4098347;29;20552;-64
2023/06/14 07:26:21;;;;;;;9.15;3.97;;;;;;;22.65;35.27;100315.09;4113857;28;20049;-63
2023/06/14 07:28:25;;;;;;;11.47;4.23;;;;;;;22.58;35.50;100317.09;4116670;28;20042;-63
2023/06/14 07:30:29;;;;;;;7.57;4.80;;;;;;;22.65;35.58;100317.75;4109656;28;20797;-63
2023/06/14 07:32:32;;;;;;;;;;;;;;;22.72;35.86;100315.69;4113221;28;20051;-63
2023/06/14 07:34:35;;;;;;;8.63;4.57;;;;;;;22.93;35.47;100317.50;4115136;28;19929;-63
2023/06/14 07:36:38;;;;;;;7.20;4.30;;;;;;;23.06;34.04;100320.53;4116155;28;20047;-64
2023/06/14 07:38:41;;;;;;;6.63;4.03;;;;;;;22.98;34.79;100314.69;4098553;29;20031;-63
2023/06/14 07:40:44;;;;;;;12.30;4.95;;;;;;;23.13;34.46;100315.88;4094500;29;20310;-63
2023/06/14 07:42:47;;;;;;;6.70;3.75;;;;;;;23.02;34.86;100317.13;4098953;28;20043;-63
2023/06/14 07:44:52;;;;;;;11.05;4.90;;;;;;;23.12;35.10;100322.13;4098659;29;20413;-63
2023/06/14 07:46:58;;;;;;;8.00;4.43;;;;;;;23.26;35.01;100325.09;4115917;28;20130;-63
2023/06/14 07:49:01;;;;;;;13.18;4.75;;;;;;;23.36;33.91;100325.56;4114502;28;20039;-65
2023/06/14 07:51:04;;;;;;;8.10;4.10;;;;;;;23.24;34.10;100321.63;4116344;28;20508;-63
2023/06/14 07:53:07;;;;;;;7.10;4.05;;;;;;;23.33;34.55;100325.69;4115714;28;20057;-63
2023/06/14 07:55:10;;;;;;;7.30;4.28;;;;;;;23.38;34.36;100317.53;4115134;28;20035;-63
2023/06/14 07:57:13;;;;;;;6.68;4.10;;;;;;;23.40;34.20;100318.34;4115240;28;20078;-63
2023/06/14 07:59:16;;;;;;;7.22;4.68;;;;;;;23.56;33.78;100323.88;4111977;28;20169;-63
2023/06/14 08:01:20;;;;;;;11.45;4.30;;;;;;;23.55;33.63;100328.31;4114392;28;20435;-64
2023/06/14 08:03:23;;;;;;;8.63;4.40;;;;;;;23.45;33.50;100319.00;4098697;28;20450;-64
2023/06/14 08:05:27;;;;;;;11.00;4.60;;;;;;;23.53;33.81;100322.22;4113970;28;20599;-63
2023/06/14 08:07:30;;;;;;;11.00;4.32;;;;;;;23.56;33.32;100326.53;4115550;28;20039;-64
2023/06/14 08:09:32;;;;;;;6.97;3.88;;;;;;;23.69;33.38;100333.03;4113888;28;20114;-63
2023/06/14 08:11:35;;;;;;;7.13;3.63;;;;;;;23.67;33.29;100326.91;4115682;28;20058;-63
2023/06/14 08:13:39;;;;;;;8.20;4.00;;;;;;;23.70;34.04;100324.16;4115361;28;20039;-64
2023/06/14 08:15:42;;;;;;;7.60;4.18;;;;;;;23.82;33.28;100330.72;4114984;28;20042;-64
2023/06/14 08:17:47;;;;;;;14.52;4.22;;;;;;;23.94;32.58;100332.88;4112370;28;20378;-63
2023/06/14 08:19:50;;;;;;;8.13;4.15;;;;;;;23.81;32.97;100326.34;4094331;29;20040;-64
2023/06/14 08:21:54;;;;;;;10.10;4.47;;;;;;;23.92;32.59;100321.47;4112873;28;20130;-64
2023/06/14 08:23:59;;;;;;;7.05;3.97;;;;;;;23.88;33.00;100323.38;4115028;28;20039;-63
2023/06/14 08:26:03;;;;;;;8.43;4.20;;;;;;;24.02;32.52;100321.91;4115489;28;20034;-63
2023/06/14 08:28:07;;;;;;;8.20;3.80;;;;;;;23.95;32.99;100318.69;4116028;28;20405;-63
2023/06/14 08:30:11;;;;;;;5.50;3.33;;;;;;;24.08;32.62;100323.44;4097914;29;20035;-64
2023/06/14 08:32:14;;;;;;;10.13;4.35;;;;;;;24.19;32.42;100323.81;4114319;28;20061;-63
2023/06/14 08:34:18;;;;;;;5.03;3.63;;;;;;;24.22;32.49;100321.91;4097844;29;20051;-64
2023/06/14 08:36:22;;;;;;;10.40;3.95;;;;;;;24.19;32.47;100324.69;4111853;28;20062;-63
2023/06/14 08:38:25;;;;;;;10.02;3.63;;;;;;;24.27;32.59;100323.47;4114958;28;20062;-64
2023/06/14 08:40:31;;;;;;;7.22;3.97;;;;;;;24.30;31.70;100326.88;4113930;28;20039;-63
2023/06/14 08:42:35;;;;;;;10.95;4.10;;;;;;;24.33;31.67;100324.06;4115156;28;20515;-64
2023/06/14 08:44:38;;;;;;;8.15;3.75;;;;;;;24.38;32.48;100327.38;4111584;28;20449;-64
2023/06/14 08:46:42;;;;;;;8.18;3.67;;;;;;;24.55;31.00;100331.06;4115007;28;20504;-63
2023/06/14 08:48:45;;;;;;;5.63;3.63;;;;;;;24.39;31.13;100329.09;4113311;28;20049;-64
2023/06/14 08:50:50;;;;;;;9.45;3.38;;;;;;;24.45;31.27;100321.78;4097559;29;20440;-63
2023/06/14 08:53:00;;;;;;;7.20;4.10;;;;;;;24.46;32.03;100328.81;4112788;28;20074;-64
2023/06/14 08:55:03;;;;;;;7.03;3.53;;;;;;;24.64;30.82;100335.13;4111883;28;20054;-64
2023/06/14 08:57:07;;;;;;;5.97;3.50;;;;;;;24.57;31.03;100332.72;4113713;28;20046;-64
2023/06/14 08:59:11;;;;;;;4.78;3.25;;;;;;;24.59;30.96;100335.34;4112210;28;20318;-64
2023/06/14 09:01:17;;;;;;;5.32;3.22;;;;;;;24.72;29.22;100336.50;4112311;28;20060;-64
2023/06/14 09:03:20;;;;;;;8.15;3.10;;;;;;;24.71;28.48;100339.22;4112120;28;20050;-63
2023/06/14 09:05:24;;;;;;;7.22;3.40;;;;;;;24.65;28.79;100335.06;4114781;28;20070;-64
2023/06/14 09:07:29;;;;;;;5.20;2.95;;;;;;;24.67;29.29;100343.81;4114426;28;20039;-64
2023/06/14 09:09:32;;;;;;;4.90;3.33;;;;;;;24.73;29.47;100334.69;4110992;28;20114;-64
2023/06/14 09:11:36;;;;;;;5.20;3.20;;;;;;;24.77;28.15;100340.75;4115227;28;20062;-63
2023/06/14 09:13:39;;;;;;;7.28;2.92;;;;;;;24.63;28.02;100339.56;4111191;28;20443;-63
2023/06/14 09:15:41;;;;;;;4.78;2.83;;;;;;;24.66;27.98;100342.09;4111694;28;20086;-64
2023/06/14 09:17:44;;;;;;;15.73;3.22;;;;;;;24.69;28.39;100331.31;4110614;28;20045;-64
2023/06/14 09:19:47;;;;;;;7.00;3.08;;;;;;;24.72;28.72;100336.50;4115195;28;20053;-63
2023/06/14 09:21:52;;;;;;;6.57;3.17;;;;;;;24.79;28.28;100344.19;4097185;28;20059;-64
2023/06/14 09:23:56;;;;;;;4.88;2.72;;;;;;;24.93;28.28;100347.06;4114091;28;20042;-64
2023/06/14 09:25:59;;;;;;;4.82;2.85;;;;;;;24.91;27.75;100352.44;4114165;28;20035;-64
2023/06/14 09:28:03;;;;;;;4.05;2.67;;;;;;;24.94;28.04;100355.88;4096066;29;20042;-64
2023/06/14 09:30:08;;;;;;;4.47;2.80;;;;;;;24.94;27.09;100348.78;4113407;28;20097;-64
2023/06/14 09:32:11;;;;;;;6.97;2.85;;;;;;;24.94;26.50;100346.13;4096852;29;20078;-64
2023/06/14 09:34:15;;;;;;;8.85;3.00;;;;;;;24.98;27.36;100345.03;4114169;28;20078;-64
2023/06/14 09:36:19;;;;;;;5.38;2.88;;;;;;;24.89;27.73;100351.63;4113376;28;20440;-64